Aviation Digital Data Service (ADDS)

Output produced by METARs form (1111 UTC 24 January 2017)
found at http://www.aviationweather.gov/adds/metars/
 
KLNS 241053Z 34010KT 10SM BKN025 OVC032 03/02 A2945 RMK AO2 SLP974 T00330022
KLNS 241026Z AUTO 33009KT 10SM BKN027 OVC039 03/02 A2944 RMK AO2 T00280022
KLNS 240953Z AUTO 33010KT 10SM SCT021 SCT036 OVC042 03/02 A2944 RMK AO2 RAE11 SLP973 P0000 T00280022
KLNS 240950Z AUTO 33009KT 10SM SCT021 SCT033 OVC042 03/02 A2944 RMK AO2 RAE11 P0000
KLNS 240906Z AUTO 34009KT 8SM -RA FEW009 BKN022 OVC036 03/02 A2945 RMK AO2 P0000 T00280022
KLNS 240853Z AUTO 34010KT 6SM -RA BR FEW011 BKN016 OVC022 03/02 A2945 RMK AO2 SLP976 P0001 60001 T00280022 57004
KLNS 240753Z AUTO 35008KT 10SM -RA BKN018 OVC025 03/02 A2947 RMK AO2 RAB39 SLP980 P0000 T00330022
KLNS 240653Z AUTO 36007KT 10SM FEW015 OVC023 03/02 A2945 RMK AO2 SLP976 T00280022
KLNS 240553Z AUTO 02013KT 10SM OVC021 03/02 A2947 RMK AO2 SLP980 60000 T00330017 10033 20022 56021
KLNS 240453Z AUTO 02012KT 10SM BKN018 OVC022 03/02 A2949 RMK AO2 RAE0357B32E45 SLP989 P0000 T00280022 400830022
KLNS 240353Z 03010KT 5SM -RA BR OVC018 02/02 A2950 RMK AO2 RAB48 SLP991 P0000 T00220017
KLNS 240253Z 02010KT 10SM OVC017 02/02 A2953 RMK AO2 SLP001 T00220017 58014
KLNS 240239Z 02012KT 6SM BR OVC015 02/02 A2953 RMK AO2 T00220022
KLNS 240231Z 03010KT 4SM BR OVC013 02/02 A2953 RMK AO2 T00220022
KLNS 240153Z 04009G19KT 8SM BKN016 OVC020 02/02 A2955 RMK AO2 SLP010 T00220017
KLNS 240053Z 04012KT 10SM OVC017 03/02 A2956 RMK AO2 SLP011 T00280017
KLNS 232353Z 05013KT 10SM OVC019 03/02 A2957 RMK AO2 RAE27 SLP016 P0001 60050 T00280017 10033 20022 50009
KLNS 232253Z 06012KT 5SM -RA BR BKN018 OVC023 03/02 A2959 RMK AO2 SLP023 P0006 T00280017
KLNS 232153Z 08013KT 10SM -RA OVC019 03/02 A2958 RMK AO2 PK WND 05033/2054 SLP018 P0011 T00280017
KLNS 232127Z 07016G27KT 5SM -RA BR FEW017 BKN023 OVC031 03/02 A2956 RMK AO2 PK WND 05033/2054 P0011 T00280017
KLNS 232106Z 07022G30KT 2 1/2SM +RA BR BKN018 OVC022 03/02 A2956 RMK AO2 PK WND 05033/2054 P0005 T00280017
KLNS 232053Z 07020G30KT 3SM RA BR BKN018 OVC026 03/02 A2955 RMK AO2 PK WND 08031/2009 SLP007 P0021 60032 T00280017 55007
KLNS 232017Z 08021G31KT 2 1/2SM +RA BR OVC020 03/02 A2954 RMK AO2 PK WND 08031/2009 P0006 T00280017
KLNS 231953Z 07020G32KT 8SM -RA OVC020 03/02 A2952 RMK AO2 PK WND 08032/1918 SLP999 P0004 T00280017
KLNS 231853Z 07020G31KT 6SM -RA BR OVC018 03/02 A2953 RMK AO2 PK WND 06032/1815 SLP002 P0007 T00280017
KLNS 231753Z 08019G26KT 5SM +RA BR OVC018 03/02 A2957 RMK AO2 PK WND 08035/1741 SLP013 P0002 60002 T00330017 10061 20033 56027 $
KLNS 231653Z 08021G34KT 8SM -RA OVC 014 04/02 A2959
KLNS 231619Z 07019G32KT 10SM -RA OVC015 04/03 A2960 RMK AO2 PK WND 09034/1603 P0000 T00390028
KLNS 231608Z 07024G34KT 10SM -RA OVC014 04/02 A2961 RMK AO2 PK WND 09034/1603 P0000 T00390022
KLNS 231553Z 08022G32KT 10SM -RA OVC016 04/03 A2962 RMK AO2 PK WND 07036/1510 RAB48 SLP033 P0000 T00440028
KLNS 231453Z 08021G30KT 10SM OVC015 04/03 A2965 RMK AO2 PK WND 07031/1443 RAB06E16 SLP040 P0000 60000 T00440033 58001
KLNS 231448Z 08021G31KT 10SM OVC015 04/03 A2965 RMK AO2 PK WND 07031/1443 RAB06E16 P0000
KLNS 231353Z 07017G27KT 5SM BR BKN014 OVC019 05/04 A2965 RMK AO2 PK WND 08034/1330 SLP043 T00500044
KLNS 231350Z 08019G24KT 5SM BR BKN014 OVC019 05/04 A2965 RMK AO2 PK WND 08034/1330
KLNS 231332Z 08021G34KT 9SM BKN016 OVC020 06/04 A2965 RMK AO2 PK WND 08034/1330 T00560039
KLNS 231309Z 08019G27KT 6SM BR OVC014 06/04 A2965 RMK AO2 PK WND 08027/1258 T00560044
KLNS 231253Z 07016G29KT 8SM OVC015 06/04 A2965 RMK AO2 PK WND 07029/1247 SLP042 T00610044
KLNS 231153Z 08016G32KT 10SM OVC013 06/05 A2965 RMK AO2 PK WND 09032/1145 SLP041 60000 70006 T00610050 10078 20061 56010
KLNS 231056Z 07017KT 9SM OVC012 06/06 A2965 RMK AO2 T00610056
KLNS 231053Z 07018G23KT 8SM OVC012 06/06 A2965 RMK AO2 SLP041 T00610056
KLNS 230953Z AUTO 08016KT 9SM OVC011 07/06 A2967 RMK AO2 SLP048 T00670061
KLNS 230853Z AUTO 08015KT 10SM OVC011 07/06 A2968 RMK AO2 SLP052 60000 T00720056 58005
KLNS 230753Z AUTO 08014KT 10SM OVC014 08/06 A2969 RMK AO2 PK WND 08026/0722 SLP055 T00780061
KLNS 230653Z AUTO 09015KT 10SM OVC014 08/06 A2970 RMK AO2 PK WND 10027/0606 RAE01 SLP057 P0000 T00780061
KLNS 230553Z AUTO 10018G25KT 10SM -RA OVC012 08/07 A2970 RMK AO2 PK WND 09026/0528 RAB28 SLP057 P0000 60006 T00780067 10094 20078 50003
KLNS 230453Z AUTO 10018G24KT 10SM OVC010 08/07 A2970 RMK AO2 SLP060 T00830072 400940056
KLNS 230418Z AUTO 09014G22KT 10SM OVC010 08/08 A2970 RMK AO2 CIG 007V012 T00830078
KLNS 230404Z AUTO 08012KT 9SM OVC009 08/08 A2970 RMK AO2 CIG 007V012 T00830083
KLNS 230353Z 07013KT 7SM OVC010 09/08 A2970 RMK AO2 CIG 006V012 SLP057 T00890083
KLNS 230317Z 09014KT 10SM BKN010 OVC014 09/09 A2970 RMK AO2 CIG 007V012 T00940089
KLNS 230253Z 09010KT 6SM BR OVC009 09/09 A2969 RMK AO2 RAE29 CIG 006V014 SLP054 P0001 60006 T00940094 53003
KLNS 230153Z 08009KT 3SM -RA BR OVC007 09/09 A2968 RMK AO2 SLP051 P0004 T00940094
KLNS 230135Z 07009KT 2SM -RA BR OVC008 09/09 A2967 RMK AO2 CIG 005V011 P0002 T00940094
KLNS 230128Z 08008KT 3SM -RA BR OVC008 09/09 A2968 RMK AO2 CIG 004V011 P0002 T00940094
KLNS 230101Z 07008KT 2SM -RA BR OVC005 09/09 A2968 RMK AO2 P0000 T00940094
KLNS 230053Z 07006KT 3SM -RA BR OVC005 09/09 A2967 RMK AO2 RAB05 SLP050 P0001 T00940094
KLNS 222353Z 08004KT 5SM BR OVC005 09/09 A2968 RMK AO2 SLP051 T00890089 10089 20072 53002